createdAt,value
2019-01-21T00:00:16.188Z,50.73
2019-01-21T00:02:47.073Z,50.55
2019-01-21T00:05:15.315Z,49.93
2019-01-21T00:07:43.420Z,50.48
2019-01-21T00:10:11.533Z,56.45
2019-01-21T00:12:39.645Z,54.53
2019-01-21T00:15:08.354Z,60.35
2019-01-21T00:17:36.596Z,57.53
2019-01-21T00:20:05.720Z,57.10
2019-01-21T00:22:33.844Z,54.55
2019-01-21T00:25:01.970Z,52.35
2019-01-21T00:27:30.093Z,49.48
2019-01-21T00:29:58.201Z,45.90
2019-01-21T00:32:26.324Z,49.75
2019-01-21T00:34:54.436Z,45.65
2019-01-21T00:37:22.654Z,42.43
2019-01-21T00:39:50.878Z,41.30
2019-01-21T00:42:19.005Z,42.80
2019-01-21T00:44:47.129Z,37.85
2019-01-21T00:47:15.245Z,38.30
2019-01-21T00:49:43.363Z,39.40
2019-01-21T00:52:11.572Z,45.25
2019-01-21T00:54:39.706Z,46.05
2019-01-21T00:57:07.844Z,40.38
2019-01-21T00:59:35.961Z,46.50
2019-01-21T01:02:04.266Z,45.75
2019-01-21T01:04:32.370Z,43.70
2019-01-21T01:07:00.492Z,48.33
2019-01-21T01:09:28.602Z,49.23
2019-01-21T01:11:56.722Z,54.60
2019-01-21T01:14:24.836Z,47.75
2019-01-21T01:16:53.072Z,53.17
2019-01-21T01:19:21.234Z,54.93
2019-01-21T01:21:49.340Z,54.75
2019-01-21T01:24:17.450Z,55.33
2019-01-21T01:26:45.566Z,47.85
2019-01-21T01:29:13.742Z,50.63
2019-01-21T01:31:41.852Z,46.13
2019-01-21T01:34:11.024Z,46.43
2019-01-21T01:36:39.178Z,48.17
2019-01-21T01:39:07.279Z,43.78
2019-01-21T01:41:35.413Z,44.77
2019-01-21T01:44:03.720Z,43.23
2019-01-21T01:46:31.854Z,42.17
2019-01-21T01:49:00.252Z,44.80
2019-01-21T01:51:28.430Z,48.23
2019-01-21T01:53:56.760Z,47.13
2019-01-21T01:56:24.855Z,55.43
2019-01-21T01:58:53.950Z,52.25
2019-01-21T02:01:22.070Z,49.83
2019-01-21T02:03:50.239Z,50.78
2019-01-21T02:06:18.395Z,57.27
2019-01-21T02:08:46.664Z,64.53
2019-01-21T02:11:14.829Z,57.50
2019-01-21T02:13:43.037Z,58.33
2019-01-21T02:16:11.724Z,56.90
2019-01-21T02:18:39.967Z,55.83
2019-01-21T02:21:09.071Z,56.57
2019-01-21T02:23:37.205Z,51.85
2019-01-21T02:26:05.961Z,56.63
2019-01-21T02:28:35.722Z,51.00
2019-01-21T02:31:05.482Z,46.23
2019-01-21T02:33:35.211Z,53.80
2019-01-21T02:36:07.613Z,53.95
2019-01-21T02:38:52.249Z,42.45
2019-01-21T02:41:28.771Z,47.25
2019-01-21T02:44:00.181Z,44.33
2019-01-21T02:46:35.661Z,47.23
2019-01-21T02:49:14.408Z,51.10
2019-01-21T02:51:50.228Z,46.55
2019-01-21T02:54:19.974Z,47.48
2019-01-21T02:56:52.421Z,51.02
2019-01-21T02:59:40.134Z,47.55
2019-01-21T03:02:14.252Z,53.38
2019-01-21T03:04:44.006Z,55.70
2019-01-21T03:07:16.405Z,48.85
2019-01-21T03:09:50.989Z,45.55
2019-01-21T03:12:26.132Z,54.05
2019-01-21T03:15:14.469Z,51.40
2019-01-21T03:17:44.212Z,49.03
2019-01-21T03:20:16.642Z,42.80
2019-01-21T03:22:47.932Z,50.98
2019-01-21T03:25:34.968Z,45.83
2019-01-21T03:28:13.419Z,47.45
2019-01-21T03:30:44.895Z,52.95
2019-01-21T03:33:23.513Z,53.35
2019-01-21T03:35:56.157Z,50.80
2019-01-21T03:38:42.362Z,47.62
2019-01-21T03:41:15.176Z,50.38
2019-01-21T03:43:57.002Z,48.68
2019-01-21T03:46:33.802Z,51.45
2019-01-21T03:49:00.893Z,59.35
2019-01-21T03:51:36.667Z,61.65
2019-01-21T03:54:12.187Z,56.08
2019-01-21T03:56:48.231Z,47.73
2019-01-21T03:59:23.898Z,52.43
2019-01-21T04:01:59.175Z,58.80
2019-01-21T04:04:28.911Z,52.53
2019-01-21T04:07:00.207Z,52.03
2019-01-21T04:09:38.755Z,49.00
2019-01-21T04:12:10.981Z,54.50
2019-01-21T04:14:40.713Z,55.88
2019-01-21T04:17:22.039Z,49.65
2019-01-21T04:20:00.597Z,52.78
2019-01-21T04:22:36.201Z,52.70
2019-01-21T04:25:08.129Z,51.50
2019-01-21T04:27:48.195Z,54.18
2019-01-21T04:30:23.999Z,57.30
2019-01-21T04:33:02.408Z,63.95
2019-01-21T04:35:44.990Z,68.07
2019-01-21T04:38:29.899Z,58.65
2019-01-21T04:40:59.692Z,55.17
2019-01-21T04:45:59.529Z,46.48
2019-01-21T04:48:38.091Z,61.73
2019-01-21T04:51:23.023Z,49.60
2019-01-21T04:53:55.707Z,56.58
2019-01-21T04:56:30.286Z,49.15
2019-01-21T04:59:16.372Z,51.68
2019-01-21T05:01:51.957Z,53.80
2019-01-21T05:04:33.456Z,56.37
2019-01-21T05:07:12.357Z,52.38
2019-01-21T05:09:55.377Z,58.25
2019-01-21T05:12:43.645Z,50.25
2019-01-21T05:15:29.516Z,56.10
2019-01-21T05:18:01.910Z,68.90
2019-01-21T05:20:48.019Z,72.27
2019-01-21T05:23:35.910Z,69.22
2019-01-21T05:26:14.786Z,61.25
2019-01-21T05:28:50.203Z,59.08
2019-01-21T05:31:21.663Z,60.80
2019-01-21T05:34:10.529Z,63.25
2019-01-21T05:36:42.798Z,60.67
2019-01-21T05:39:21.342Z,65.25
2019-01-21T05:42:07.280Z,69.82
2019-01-21T05:44:37.078Z,67.10
2019-01-21T05:47:09.825Z,58.60
2019-01-21T05:49:45.519Z,67.30
2019-01-21T05:52:23.494Z,60.95
2019-01-21T05:54:56.196Z,67.67
2019-01-21T05:57:35.039Z,59.73
2019-01-21T06:00:22.879Z,68.78
2019-01-21T06:02:55.958Z,68.78
2019-01-21T06:05:31.610Z,73.45
2019-01-21T06:08:07.274Z,65.05
2019-01-21T06:10:37.022Z,68.83
2019-01-21T06:13:12.402Z,67.60
2019-01-21T06:15:42.122Z,66.10
2019-01-21T06:18:14.418Z,69.50
2019-01-21T06:20:44.150Z,66.75
2019-01-21T06:23:25.514Z,69.20
2019-01-21T06:25:57.658Z,63.80
2019-01-21T06:28:32.972Z,63.50
2019-01-21T06:31:05.530Z,60.20
2019-01-21T06:33:38.383Z,66.75
2019-01-21T06:36:10.864Z,60.05
2019-01-21T06:38:55.627Z,70.42
2019-01-21T06:41:31.073Z,71.80
2019-01-21T06:44:06.966Z,68.67
2019-01-21T06:46:36.696Z,60.55
2019-01-21T06:49:15.511Z,59.53
2019-01-21T06:51:50.492Z,57.45
2019-01-21T06:54:29.014Z,61.15
2019-01-21T06:57:10.582Z,63.45
2019-01-21T07:02:44.291Z,69.97
2019-01-21T07:05:32.139Z,62.23
2019-01-21T07:08:07.351Z,61.18
2019-01-21T07:10:37.204Z,64.47
2019-01-21T07:13:11.235Z,68.25
2019-01-21T07:16:02.781Z,72.25
2019-01-21T07:18:32.510Z,75.85
2019-01-21T07:21:10.969Z,68.12
2019-01-21T07:23:43.509Z,65.60
2019-01-21T07:26:16.525Z,63.00
2019-01-21T07:28:46.291Z,66.90
2019-01-21T07:31:18.555Z,70.03
2019-01-21T07:33:48.427Z,68.62
2019-01-21T07:36:33.141Z,63.63
2019-01-21T07:39:11.264Z,64.42
2019-01-21T07:41:41.043Z,63.90
2019-01-21T07:44:16.103Z,70.37
2019-01-21T07:46:48.467Z,67.17
2019-01-21T07:49:25.750Z,65.08
2019-01-21T07:51:55.495Z,73.37
2019-01-21T07:54:35.650Z,71.92
2019-01-21T07:57:02.775Z,68.15
2019-01-21T07:59:36.655Z,67.97
2019-01-21T08:02:06.515Z,69.62
2019-01-21T08:04:36.530Z,66.37
2019-01-21T08:07:06.325Z,63.80
2019-01-21T08:09:37.283Z,67.35
2019-01-21T08:12:21.921Z,64.32
2019-01-21T08:14:57.633Z,68.07
2019-01-21T08:17:27.391Z,63.15
2019-01-21T08:19:57.143Z,67.45
2019-01-21T08:22:36.006Z,72.42
2019-01-21T08:25:11.480Z,64.53
2019-01-21T08:27:48.619Z,56.25
2019-01-21T08:30:18.393Z,64.67
2019-01-21T08:33:04.715Z,60.12
2019-01-21T08:35:34.790Z,63.17
2019-01-21T08:40:41.675Z,58.13
2019-01-21T08:43:16.991Z,63.28
2019-01-21T08:45:52.234Z,67.95
2019-01-21T08:48:27.554Z,63.02
2019-01-21T08:51:02.784Z,65.22
2019-01-21T08:53:32.590Z,62.80
2019-01-21T08:56:08.027Z,66.82
2019-01-21T08:58:37.760Z,66.97
2019-01-21T09:01:25.610Z,64.97
2019-01-21T09:04:01.216Z,63.73
2019-01-21T09:06:32.207Z,65.50
2019-01-21T09:09:10.342Z,59.30
2019-01-21T09:11:49.188Z,63.05
2019-01-21T09:14:24.966Z,63.80
2019-01-21T09:17:10.204Z,60.67
2019-01-21T09:19:52.829Z,61.85
2019-01-21T09:24:54.677Z,66.33
2019-01-21T09:27:24.164Z,64.87
2019-01-21T09:30:10.770Z,71.12
2019-01-21T09:32:46.196Z,71.45
2019-01-21T09:35:32.406Z,67.60
2019-01-21T09:38:02.122Z,69.67
2019-01-21T09:40:37.711Z,68.20
2019-01-21T09:43:13.634Z,70.15
2019-01-21T09:45:45.964Z,71.82
2019-01-21T09:48:13.710Z,70.57
2019-01-21T09:50:41.807Z,70.75
2019-01-21T09:53:09.910Z,68.60
2019-01-21T09:55:44.894Z,71.57
2019-01-21T09:58:13.446Z,73.75
2019-01-21T10:00:41.598Z,70.17
2019-01-21T10:03:11.367Z,70.97
2019-01-21T10:05:39.522Z,73.25
2019-01-21T10:08:09.364Z,66.05
2019-01-21T10:10:47.993Z,66.35
2019-01-21T10:13:18.486Z,75.67
2019-01-21T10:15:48.219Z,63.08
2019-01-21T10:18:35.830Z,71.67
2019-01-21T10:21:08.282Z,67.58
2019-01-21T10:23:38.083Z,74.87
2019-01-21T10:26:26.201Z,81.12
2019-01-21T10:29:01.321Z,84.47
2019-01-21T10:31:31.083Z,81.35
2019-01-21T10:34:08.029Z,97.02
2019-01-21T10:36:40.357Z,85.10
2019-01-21T10:39:12.935Z,80.12
2019-01-21T10:41:46.781Z,88.90
2019-01-21T10:44:19.422Z,85.87
2019-01-21T10:46:51.685Z,90.70
2019-01-21T10:49:27.157Z,87.20
2019-01-21T10:52:13.325Z,87.85
2019-01-21T10:54:48.612Z,91.90
2019-01-21T10:57:19.456Z,90.83
2019-01-21T10:59:52.062Z,84.87
2019-01-21T11:02:24.829Z,89.42
2019-01-21T11:05:00.604Z,81.60
2019-01-21T11:07:39.138Z,91.08
2019-01-21T11:10:23.742Z,95.20
2019-01-21T11:12:53.911Z,91.40
2019-01-21T11:15:24.818Z,91.50
2019-01-21T11:17:57.462Z,91.57
2019-01-21T11:20:32.974Z,91.57
2019-01-21T11:23:08.764Z,91.57
2019-01-21T11:25:38.498Z,91.15
2019-01-21T11:28:11.039Z,92.92
2019-01-21T11:30:46.484Z,91.45
2019-01-21T11:33:33.790Z,91.72
2019-01-21T11:36:22.742Z,95.92
2019-01-21T11:38:52.471Z,90.45
2019-01-21T11:41:31.382Z,86.28
2019-01-21T11:44:01.134Z,88.45
2019-01-21T11:46:49.266Z,92.22
2019-01-21T11:49:19.010Z,96.42
2019-01-21T11:52:00.948Z,92.50
2019-01-21T11:54:33.448Z,87.88
2019-01-21T11:57:05.589Z,86.57
2019-01-21T11:59:37.870Z,86.80
2019-01-21T12:02:10.398Z,90.60
2019-01-21T12:04:40.149Z,87.47
2019-01-21T12:07:11.558Z,91.00
2019-01-21T12:09:58.427Z,88.35
2019-01-21T12:12:36.635Z,80.90
2019-01-21T12:15:23.467Z,87.62
2019-01-21T12:17:58.803Z,83.15
2019-01-21T12:20:42.791Z,76.75
2019-01-21T12:23:24.491Z,72.97
2019-01-21T12:26:06.315Z,73.55
2019-01-21T12:28:45.027Z,70.15
2019-01-21T12:31:26.687Z,63.73
2019-01-21T12:33:56.418Z,68.00
2019-01-21T12:36:35.742Z,72.00
2019-01-21T12:39:11.412Z,62.88
2019-01-21T12:41:49.579Z,63.38
2019-01-21T12:44:29.825Z,60.88
2019-01-21T12:47:05.523Z,56.83
2019-01-21T12:49:38.969Z,61.53
2019-01-21T12:52:08.685Z,51.92
2019-01-21T12:54:49.935Z,54.45
2019-01-21T12:57:19.659Z,53.20
2019-01-21T13:00:01.196Z,53.87
2019-01-21T13:02:32.599Z,52.03
2019-01-21T13:05:12.630Z,49.88
2019-01-21T13:10:12.760Z,49.73
2019-01-21T13:13:03.283Z,55.00
2019-01-21T13:15:41.807Z,52.33
2019-01-21T13:18:12.090Z,55.73
2019-01-21T13:20:42.201Z,49.50
2019-01-21T13:25:41.002Z,53.68
2019-01-21T13:28:13.849Z,55.20
2019-01-21T13:30:58.586Z,52.23
2019-01-21T13:33:28.367Z,52.73
2019-01-21T13:36:10.455Z,57.20
2019-01-21T13:38:42.625Z,49.33
2019-01-21T13:41:12.375Z,48.60
2019-01-21T13:43:44.553Z,50.30
2019-01-21T13:46:22.943Z,51.23
2019-01-21T13:51:38.238Z,53.33
2019-01-21T13:54:10.706Z,52.27
2019-01-21T13:56:45.336Z,49.48
2019-01-21T13:59:15.070Z,52.17
2019-01-21T14:01:44.802Z,55.35
2019-01-21T14:04:32.685Z,55.55
2019-01-21T14:07:19.272Z,55.05
2019-01-21T14:10:05.690Z,55.33
2019-01-21T14:12:38.270Z,54.15
2019-01-21T14:15:22.583Z,54.00
2019-01-21T14:18:07.046Z,55.88
2019-01-21T14:20:43.566Z,58.85
2019-01-21T14:23:11.536Z,54.80
2019-01-21T14:25:42.967Z,56.58
2019-01-21T14:28:12.706Z,58.68
2019-01-21T14:30:46.862Z,59.38
2019-01-21T14:33:25.700Z,57.62
2019-01-21T14:36:00.530Z,56.35
2019-01-21T14:38:30.356Z,57.00
2019-01-21T14:41:09.006Z,57.65
2019-01-21T14:43:38.740Z,56.63
2019-01-21T14:46:12.748Z,57.78
2019-01-21T14:48:50.020Z,63.80
2019-01-21T14:51:25.568Z,58.78
2019-01-21T14:53:58.483Z,57.08
2019-01-21T14:56:30.779Z,56.60
2019-01-21T14:59:00.515Z,62.45
2019-01-21T15:01:39.925Z,58.40
2019-01-21T15:04:09.698Z,58.45
2019-01-21T15:06:42.497Z,56.50
2019-01-21T15:09:12.294Z,55.17
2019-01-21T15:11:44.726Z,58.50
2019-01-21T15:14:20.436Z,55.40
2019-01-21T15:16:55.886Z,62.48
2019-01-21T15:19:26.079Z,63.98
2019-01-21T15:24:34.132Z,64.95
2019-01-21T15:27:14.814Z,63.65
2019-01-21T15:29:50.488Z,67.55
2019-01-21T15:32:35.034Z,66.33
2019-01-21T15:35:13.635Z,70.92
2019-01-21T15:37:45.091Z,61.42
2019-01-21T15:40:17.256Z,71.70
2019-01-21T15:42:47.014Z,71.37
2019-01-21T15:45:16.924Z,71.95
2019-01-21T15:47:46.820Z,74.37
2019-01-21T15:50:21.341Z,72.15
2019-01-21T15:52:59.817Z,74.12
2019-01-21T15:55:32.191Z,68.17
2019-01-21T15:58:04.547Z,72.15
2019-01-21T16:00:49.871Z,70.10
2019-01-21T16:03:23.439Z,68.85
2019-01-21T16:05:55.717Z,73.47
2019-01-21T16:08:28.181Z,69.05
2019-01-21T16:11:00.783Z,72.95
2019-01-21T16:13:31.177Z,70.70
2019-01-21T16:16:01.162Z,76.25
2019-01-21T16:18:32.353Z,76.07
2019-01-21T16:21:03.685Z,65.20
2019-01-21T16:23:43.807Z,74.53
2019-01-21T16:26:19.800Z,79.47
2019-01-21T16:28:52.166Z,79.12
2019-01-21T16:31:24.908Z,88.82
2019-01-21T16:34:02.417Z,88.82
2019-01-21T16:36:32.192Z,86.85
2019-01-21T16:39:02.611Z,89.95
2019-01-21T16:41:36.882Z,87.33
2019-01-21T16:44:06.621Z,94.70
2019-01-21T16:46:34.769Z,89.67
2019-01-21T16:49:04.520Z,105.80
2019-01-21T16:51:32.688Z,96.15
2019-01-21T16:54:01.014Z,95.83
2019-01-21T16:56:34.522Z,104.25
2019-01-21T16:59:03.723Z,90.55
2019-01-21T17:01:31.806Z,99.20
2019-01-21T17:03:59.900Z,99.28
2019-01-21T17:06:28.016Z,77.32
2019-01-21T17:08:57.780Z,87.62
2019-01-21T17:11:27.158Z,96.35
2019-01-21T17:13:56.873Z,98.58
2019-01-21T17:16:25.004Z,89.72
2019-01-21T17:18:53.165Z,97.78
2019-01-21T17:21:26.852Z,97.92
2019-01-21T17:23:53.266Z,94.45
2019-01-21T17:26:21.560Z,100.25
2019-01-21T17:28:50.639Z,98.30
2019-01-21T17:31:18.783Z,104.20
2019-01-21T17:33:46.971Z,101.20
2019-01-21T17:36:17.990Z,98.17
2019-01-21T17:38:48.826Z,100.67
2019-01-21T17:41:17.198Z,101.53
2019-01-21T17:43:45.377Z,112.90
2019-01-21T17:46:13.501Z,107.05
2019-01-21T17:48:41.613Z,101.90
2019-01-21T17:51:09.732Z,114.82
2019-01-21T17:53:38.186Z,109.10
2019-01-21T17:56:06.318Z,116.03
2019-01-21T17:58:34.405Z,120.47
2019-01-21T18:01:02.521Z,114.67
2019-01-21T18:03:31.023Z,117.75
2019-01-21T18:05:59.217Z,122.02
2019-01-21T18:08:30.387Z,121.25
2019-01-21T18:10:58.584Z,125.67
2019-01-21T18:13:26.691Z,120.08
2019-01-21T18:15:56.431Z,123.20
2019-01-21T18:18:24.543Z,121.07
2019-01-21T18:20:52.658Z,122.15
2019-01-21T18:23:20.838Z,112.10
2019-01-21T18:25:49.126Z,125.85
2019-01-21T18:28:17.289Z,116.08
2019-01-21T18:30:45.583Z,119.75
2019-01-21T18:33:19.823Z,107.52
2019-01-21T18:35:47.988Z,118.35
2019-01-21T18:38:18.823Z,116.10
2019-01-21T18:40:50.930Z,106.22
2019-01-21T18:43:19.847Z,121.13
2019-01-21T18:45:48.140Z,128.90
2019-01-21T18:48:16.243Z,128.53
2019-01-21T18:50:46.304Z,134.78
2019-01-21T18:53:14.165Z,133.50
2019-01-21T18:55:42.271Z,139.32
2019-01-21T18:58:10.395Z,132.55
2019-01-21T19:00:40.263Z,138.85
2019-01-21T19:03:08.388Z,139.32
2019-01-21T19:05:36.516Z,131.50
2019-01-21T19:08:06.279Z,137.10
2019-01-21T19:10:34.391Z,140.40
2019-01-21T19:13:03.076Z,126.07
2019-01-21T19:15:31.518Z,125.80
2019-01-21T19:18:00.761Z,121.15
2019-01-21T19:20:30.496Z,120.75
2019-01-21T19:22:58.670Z,130.63
2019-01-21T19:25:26.842Z,121.13
2019-01-21T19:27:55.628Z,125.55
2019-01-21T19:30:24.660Z,111.62
2019-01-21T19:32:52.902Z,116.55
2019-01-21T19:35:28.362Z,115.62
2019-01-21T19:37:56.566Z,109.65
2019-01-21T19:40:24.688Z,106.15
2019-01-21T19:42:52.886Z,110.72
2019-01-21T19:45:21.202Z,126.60
2019-01-21T19:47:50.960Z,118.13
2019-01-21T19:50:22.796Z,118.85
2019-01-21T19:52:52.628Z,123.45
2019-01-21T19:55:24.116Z,120.05
2019-01-21T19:57:52.307Z,123.90
2019-01-21T20:00:21.552Z,121.97
2019-01-21T20:02:49.726Z,126.23
2019-01-21T20:05:18.695Z,128.68
2019-01-21T20:07:46.807Z,121.67
2019-01-21T20:10:17.172Z,126.57
2019-01-21T20:12:45.368Z,131.80
2019-01-21T20:15:14.554Z,124.60
2019-01-21T20:17:43.044Z,120.90
2019-01-21T20:20:12.938Z,118.08
2019-01-21T20:22:41.036Z,117.72
2019-01-21T20:25:10.130Z,122.15
2019-01-21T20:30:08.201Z,113.37
2019-01-21T20:32:37.230Z,126.35
2019-01-21T20:35:07.236Z,119.53
2019-01-21T20:37:36.513Z,118.17
2019-01-21T20:40:08.926Z,112.05
2019-01-21T20:42:41.470Z,122.75
2019-01-21T20:45:15.447Z,119.53
2019-01-21T20:47:45.342Z,125.12
2019-01-21T20:50:16.075Z,129.95
2019-01-21T20:52:47.939Z,127.55
2019-01-21T20:55:21.751Z,119.35
2019-01-21T20:57:49.978Z,118.70
2019-01-21T21:00:24.150Z,119.75
2019-01-21T21:03:01.631Z,113.17
2019-01-21T21:05:29.749Z,111.72
2019-01-21T21:07:58.553Z,116.62
2019-01-21T21:10:26.711Z,120.97
2019-01-21T21:12:56.681Z,116.50
2019-01-21T21:15:29.075Z,125.45
2019-01-21T21:17:57.200Z,113.85
2019-01-21T21:20:25.313Z,114.28
2019-01-21T21:22:53.855Z,118.82
2019-01-21T21:25:22.409Z,122.87
2019-01-21T21:27:50.529Z,114.95
2019-01-21T21:30:22.717Z,114.92
2019-01-21T21:32:50.817Z,111.75
2019-01-21T21:35:18.926Z,122.58
2019-01-21T21:37:51.252Z,126.80
2019-01-21T21:40:22.235Z,122.62
2019-01-21T21:42:50.511Z,128.72
2019-01-21T21:45:19.413Z,122.02
2019-01-21T21:47:47.619Z,116.75
2019-01-21T21:50:19.907Z,119.28
2019-01-21T21:52:48.027Z,115.85
2019-01-21T21:55:16.143Z,118.35
2019-01-21T21:57:44.330Z,115.10
2019-01-21T22:00:17.921Z,112.52
2019-01-21T22:02:48.930Z,119.90
2019-01-21T22:05:16.154Z,117.93
2019-01-21T22:07:44.262Z,118.55
2019-01-21T22:10:13.914Z,112.75
2019-01-21T22:12:42.109Z,116.50
2019-01-21T22:15:16.127Z,111.45
2019-01-21T22:17:41.381Z,100.02
2019-01-21T22:20:11.310Z,107.25
2019-01-21T22:22:42.762Z,112.25
2019-01-21T22:25:12.083Z,110.55
2019-01-21T22:27:40.255Z,107.72
2019-01-21T22:30:10.002Z,116.55
2019-01-21T22:32:40.918Z,116.15
2019-01-21T22:35:09.126Z,107.60
2019-01-21T22:37:37.614Z,116.53
2019-01-21T22:40:13.342Z,120.02
2019-01-21T22:42:41.453Z,112.97
2019-01-21T22:45:10.226Z,115.65
2019-01-21T22:47:38.348Z,125.50
2019-01-21T22:50:10.151Z,130.60
2019-01-21T22:52:42.013Z,121.65
2019-01-21T22:55:09.352Z,116.93
2019-01-21T22:57:37.580Z,128.18
2019-01-21T23:00:13.264Z,129.12
2019-01-21T23:02:41.830Z,117.87
2019-01-21T23:05:10.017Z,130.18
2019-01-21T23:07:38.232Z,124.00
2019-01-21T23:10:07.306Z,126.02
2019-01-21T23:12:35.433Z,128.23
2019-01-21T23:15:03.805Z,125.62
2019-01-21T23:17:32.002Z,118.28
2019-01-21T23:20:00.228Z,133.10
2019-01-21T23:22:28.427Z,132.85
2019-01-21T23:24:56.619Z,127.95
2019-01-21T23:27:24.829Z,128.35
2019-01-21T23:29:53.339Z,122.78
2019-01-21T23:32:21.585Z,127.55
2019-01-21T23:34:49.764Z,130.63
2019-01-21T23:37:18.020Z,135.10
2019-01-21T23:39:47.439Z,140.73
2019-01-21T23:42:15.659Z,144.75
2019-01-21T23:44:44.335Z,145.60
2019-01-21T23:47:12.543Z,131.80
2019-01-21T23:49:40.741Z,134.47
2019-01-21T23:52:08.935Z,163.70
2019-01-21T23:54:37.049Z,173.02
2019-01-21T23:57:05.195Z,160.05
2019-01-21T23:59:33.319Z,159.70
